Time;durP1;ratioP1;P1;durP2;ratioP2;P2;SDS_P1;SDS_P2;PMS_P1;PMS_P2;Temp;Humidity;BMP_temperature;BMP_pressure;BME280_temperature;BME280_humidity;BME280_pressure;Samples;Min_cycle;Max_cycle;Signal;HPM_P1;HPM_P2
2022/12/05 00:00:07;;;;;;;0.20;0.20;;;;;;;1.99;100.00;101725.47;4961007;28;20151;-71
2022/12/05 00:02:32;;;;;;;0.20;0.20;;;;;;;2.01;100.00;101731.59;4932692;28;20050;-71
2022/12/05 00:04:57;;;;;;;0.20;0.20;;;;;;;1.84;100.00;101710.00;4956205;28;20424;-71
2022/12/05 00:07:23;;;;;;;0.20;0.20;;;;;;;1.92;100.00;101724.78;4933203;28;20073;-71
2022/12/05 00:09:49;;;;;;;0.30;0.30;;;;;;;1.80;100.00;101704.78;4962929;28;20078;-71
2022/12/05 00:12:15;;;;;;;0.20;0.20;;;;;;;2.03;100.00;101726.28;4943330;28;20384;-71
2022/12/05 00:14:40;;;;;;;0.20;0.20;;;;;;;2.01;100.00;101728.94;4951944;28;20031;-71
2022/12/05 00:17:05;;;;;;;0.10;0.10;;;;;;;2.03;100.00;101726.28;4974409;28;20121;-71
2022/12/05 00:19:30;;;;;;;0.20;0.20;;;;;;;1.82;100.00;101690.66;4958053;28;20031;-71
2022/12/05 00:21:56;;;;;;;0.20;0.20;;;;;;;1.78;100.00;101687.22;4955114;28;20037;-71
2022/12/05 00:24:22;;;;;;;0.20;0.20;;;;;;;1.97;100.00;101718.50;4934694;28;20031;-71
2022/12/05 00:26:47;;;;;;;0.20;0.20;;;;;;;2.12;100.00;101718.06;4943668;28;20910;-72
2022/12/05 00:29:12;;;;;;;0.20;0.20;;;;;;;2.02;100.00;101713.94;4961472;28;20037;-71
2022/12/05 00:31:38;;;;;;;0.20;0.20;;;;;;;2.07;100.00;101707.59;4941648;28;20157;-71
2022/12/05 00:34:03;;;;;;;0.20;0.20;;;;;;;1.99;100.00;101714.88;4963853;28;20038;-71
2022/12/05 00:36:32;;;;;;;0.20;0.20;;;;;;;2.15;100.00;101719.75;4963638;28;20550;-71
2022/12/05 00:39:03;;;;;;;0.20;0.20;;;;;;;2.12;100.00;101709.25;4936280;28;20431;-71
2022/12/05 00:41:29;;;;;;;0.20;0.20;;;;;;;2.02;100.00;101712.16;4964874;28;20074;-71
2022/12/05 00:43:55;;;;;;;0.15;0.15;;;;;;;2.16;100.00;101706.47;4942804;28;20035;-71
2022/12/05 00:46:22;;;;;;;0.20;0.20;;;;;;;2.12;100.00;101698.66;4963797;28;20034;-71
2022/12/05 00:48:48;;;;;;;0.20;0.20;;;;;;;2.06;100.00;101697.06;4949173;28;20352;-71
2022/12/05 00:51:17;;;;;;;0.20;0.20;;;;;;;2.01;100.00;101685.72;4944763;28;20170;-71
2022/12/05 00:53:43;;;;;;;0.20;0.20;;;;;;;2.11;100.00;101705.75;4960836;28;20454;-71
2022/12/05 00:56:14;;;;;;;0.20;0.20;;;;;;;2.17;100.00;101697.59;4967854;28;20030;-71
2022/12/05 00:58:39;;;;;;;0.20;0.20;;;;;;;1.97;100.00;101684.94;4951206;28;20049;-71
2022/12/05 01:01:17;;;;;;;0.20;0.20;;;;;;;2.17;100.00;101710.84;4957686;28;20027;-71
2022/12/05 01:03:43;;;;;;;0.20;0.20;;;;;;;2.15;100.00;101710.00;4938067;28;20523;-71
2022/12/05 01:06:10;;;;;;;0.20;0.20;;;;;;;2.04;100.00;101699.72;4947877;28;20038;-71
2022/12/05 01:08:35;;;;;;;0.10;0.10;;;;;;;2.09;100.00;101704.91;4957440;28;20061;-71
2022/12/05 01:11:03;;;;;;;0.22;0.22;;;;;;;2.00;100.00;101682.19;4953169;28;20109;-71
2022/12/05 01:13:28;;;;;;;0.20;0.20;;;;;;;2.18;100.00;101707.28;4956925;28;20041;-71
2022/12/05 01:15:54;;;;;;;0.15;0.15;;;;;;;2.09;100.00;101713.72;4951345;28;20035;-71
2022/12/05 01:18:20;;;;;;;0.20;0.20;;;;;;;2.27;100.00;101714.09;4938916;28;20023;-71
2022/12/05 01:20:46;;;;;;;0.20;0.20;;;;;;;2.12;100.00;101696.84;4982000;28;20041;-71
2022/12/05 01:23:12;;;;;;;0.20;0.20;;;;;;;2.15;100.00;101702.06;4954014;28;20109;-71
2022/12/05 01:25:42;;;;;;;0.20;0.20;;;;;;;2.06;100.00;101702.34;4959568;28;20030;-71
2022/12/05 01:28:08;;;;;;;0.20;0.20;;;;;;;2.19;100.00;101719.63;4954483;28;20019;-71
2022/12/05 01:30:40;;;;;;;0.20;0.20;;;;;;;2.14;100.00;101704.78;4932009;28;20043;-71
2022/12/05 01:33:05;;;;;;;0.20;0.20;;;;;;;2.27;100.00;101721.19;4957127;28;20037;-71
2022/12/05 01:35:31;;;;;;;0.20;0.20;;;;;;;2.15;100.00;101709.16;4950536;28;20057;-71
2022/12/05 01:37:57;;;;;;;0.20;0.20;;;;;;;2.09;100.00;101711.06;4954155;28;20030;-71
2022/12/05 01:40:22;;;;;;;0.20;0.20;;;;;;;2.28;100.00;101738.81;4966414;28;20039;-71
2022/12/05 01:42:47;;;;;;;0.10;0.10;;;;;;;2.18;100.00;101730.28;4951915;28;20030;-71
2022/12/05 01:45:16;;;;;;;0.20;0.20;;;;;;;2.17;100.00;101734.69;4940391;28;20092;-71
2022/12/05 01:47:42;;;;;;;0.20;0.20;;;;;;;2.06;100.00;101726.19;4924983;28;20027;-71
2022/12/05 01:50:08;;;;;;;0.20;0.20;;;;;;;2.22;100.00;101748.69;4940352;28;20031;-71
2022/12/05 01:52:33;;;;;;;0.17;0.17;;;;;;;2.15;100.00;101752.41;4947013;28;20046;-71
2022/12/05 01:55:03;;;;;;;0.20;0.20;;;;;;;2.22;100.00;101745.19;4941873;28;20027;-71
2022/12/05 01:57:29;;;;;;;0.20;0.20;;;;;;;2.05;100.00;101720.00;4949378;28;20071;-71
2022/12/05 01:59:59;;;;;;;0.20;0.20;;;;;;;2.21;100.00;101736.34;4952289;28;20520;-71
2022/12/05 02:02:26;;;;;;;0.20;0.20;;;;;;;2.22;100.00;101751.34;4936712;28;20074;-71
2022/12/05 02:05:12;;;;;;;0.20;0.20;;;;;;;2.16;100.00;101748.84;4944261;28;20062;-71
2022/12/05 02:07:38;;;;;;;0.20;0.20;;;;;;;2.18;100.00;101741.72;4949354;28;20062;-71
2022/12/05 02:10:05;;;;;;;0.30;0.30;;;;;;;2.13;100.00;101746.28;4945471;28;20296;-71
2022/12/05 02:12:31;;;;;;;0.20;0.20;;;;;;;1.98;100.00;101728.19;4938345;28;20035;-71
2022/12/05 02:15:28;;;;;;;0.20;0.20;;;;;;;2.12;100.00;101744.53;4946131;28;20034;-71
2022/12/05 02:18:27;;;;;;;0.20;0.20;;;;;;;2.17;100.00;101749.72;4936826;28;20035;-71
2022/12/05 02:21:17;;;;;;;0.20;0.20;;;;;;;2.16;100.00;101748.84;4960974;28;20166;-71
2022/12/05 02:23:49;;;;;;;0.20;0.20;;;;;;;2.17;100.00;101750.59;4939566;28;20034;-71
2022/12/05 02:26:39;;;;;;;0.20;0.20;;;;;;;2.20;100.00;101752.31;4946345;28;20363;-71
2022/12/05 02:29:42;;;;;;;0.20;0.20;;;;;;;2.14;100.00;101745.38;4956273;28;20030;-71
2022/12/05 02:32:13;;;;;;;0.20;0.20;;;;;;;2.16;100.00;101745.34;4960409;28;20062;-71
2022/12/05 02:34:59;;;;;;;0.20;0.20;;;;;;;2.20;100.00;101754.94;4946166;28;20038;-71
2022/12/05 02:37:34;;;;;;;0.20;0.20;;;;;;;2.04;100.00;101733.31;4969095;28;20054;-71
2022/12/05 02:40:03;;;;;;;0.20;0.20;;;;;;;2.19;100.00;101750.56;4961274;28;20057;-72
2022/12/05 02:42:36;;;;;;;0.20;0.20;;;;;;;2.21;100.00;101752.25;4961760;28;20034;-71
2022/12/05 02:45:06;;;;;;;0.30;0.30;;;;;;;2.25;100.00;101745.09;4958341;28;20033;-71
2022/12/05 02:47:34;;;;;;;0.20;0.20;;;;;;;2.24;100.00;101743.34;4941989;28;20456;-71
2022/12/05 02:50:00;;;;;;;0.20;0.20;;;;;;;2.24;100.00;101754.81;4938781;28;20504;-71
2022/12/05 02:52:26;;;;;;;0.20;0.20;;;;;;;2.14;100.00;101737.41;4946251;28;20039;-71
2022/12/05 02:54:53;;;;;;;0.10;0.10;;;;;;;2.14;100.00;101733.91;4974945;28;20439;-71
2022/12/05 02:57:20;;;;;;;0.20;0.20;;;;;;;2.29;100.00;101761.78;4947357;28;20050;-71
2022/12/05 02:59:45;;;;;;;0.20;0.20;;;;;;;2.15;100.00;101738.31;4935364;28;20133;-71
2022/12/05 03:02:31;;;;;;;0.20;0.20;;;;;;;2.25;100.00;101753.03;4941952;28;20037;-71
2022/12/05 03:05:03;;;;;;;0.20;0.20;;;;;;;2.12;100.00;101738.38;4929081;28;20026;-71
2022/12/05 03:07:30;;;;;;;0.20;0.20;;;;;;;1.93;100.00;101717.72;4960055;28;20420;-71
2022/12/05 03:09:59;;;;;;;0.20;0.20;;;;;;;2.05;100.00;101721.81;4963439;28;20171;-71
2022/12/05 03:12:28;;;;;;;0.20;0.20;;;;;;;2.08;100.00;101729.66;4932113;28;20039;-71
2022/12/05 03:15:07;;;;;;;0.20;0.20;;;;;;;2.23;100.00;101742.47;4950046;28;20034;-71
2022/12/05 03:17:40;;;;;;;0.20;0.20;;;;;;;2.02;100.00;101717.44;4949024;28;20038;-71
2022/12/05 03:20:13;;;;;;;0.10;0.10;;;;;;;2.29;100.00;101759.13;4948677;28;20332;-71
2022/12/05 03:22:48;;;;;;;0.20;0.20;;;;;;;2.32;100.00;101753.75;4946792;28;20043;-71
2022/12/05 03:25:14;;;;;;;0.20;0.20;;;;;;;2.35;100.00;101753.66;4948892;28;20109;-71
2022/12/05 03:27:46;;;;;;;0.20;0.20;;;;;;;2.33;100.00;101751.03;4963121;28;20470;-71
2022/12/05 03:30:14;;;;;;;0.20;0.20;;;;;;;2.15;100.00;101711.81;4947517;28;20018;-71
2022/12/05 03:32:57;;;;;;;0.20;0.20;;;;;;;2.36;100.00;101748.28;4945918;28;21153;-71
2022/12/05 03:35:35;;;;;;;0.20;0.20;;;;;;;2.43;100.00;101748.13;4974388;28;20486;-71
2022/12/05 03:38:10;;;;;;;0.20;0.20;;;;;;;2.28;100.00;101747.63;4965930;28;20449;-71
2022/12/05 03:40:48;;;;;;;0.20;0.20;;;;;;;2.30;100.00;101752.91;4949428;28;20027;-71
2022/12/05 03:43:35;;;;;;;0.20;0.20;;;;;;;2.34;100.00;101749.25;4960112;28;20060;-71
2022/12/05 03:46:36;;;;;;;0.20;0.20;;;;;;;2.32;100.00;101749.28;4961327;28;20076;-71
2022/12/05 03:49:06;;;;;;;0.20;0.20;;;;;;;2.39;100.00;101744.66;4900062;28;20053;-71
2022/12/05 03:51:53;;;;;;;0.20;0.20;;;;;;;2.33;100.00;101748.38;4946317;28;20508;-71
2022/12/05 03:54:28;;;;;;;0.20;0.20;;;;;;;2.15;100.00;101714.47;4951211;28;20114;-71
2022/12/05 03:57:01;;;;;;;0.20;0.20;;;;;;;2.33;100.00;101750.16;4927410;28;20034;-71
2022/12/05 03:59:43;;;;;;;0.20;0.20;;;;;;;2.32;100.00;101753.75;4938300;28;20030;-72
2022/12/05 04:02:14;;;;;;;0.20;0.20;;;;;;;2.28;100.00;101752.09;4958711;28;20117;-71
2022/12/05 04:04:48;;;;;;;0.20;0.20;;;;;;;2.34;100.00;101751.91;4959970;28;20499;-71
2022/12/05 04:07:15;;;;;;;0.20;0.20;;;;;;;2.23;100.00;101733.66;4928021;28;20037;-72
2022/12/05 04:09:45;;;;;;;0.20;0.20;;;;;;;2.36;100.00;101736.84;4962044;28;20427;-71
2022/12/05 04:12:14;;;;;;;0.20;0.20;;;;;;;2.28;100.00;101754.72;4941012;28;20030;-71
2022/12/05 04:14:43;;;;;;;0.20;0.20;;;;;;;2.35;100.00;101753.66;4957980;28;20480;-72
2022/12/05 04:17:51;;;;;;;0.20;0.20;;;;;;;2.42;100.00;101754.34;4960252;28;20022;-71
2022/12/05 04:23:09;;;;;;;0.20;0.20;;;;;;;2.36;100.00;101758.03;4876491;29;20163;-71
2022/12/05 04:25:56;;;;;;;0.20;0.20;;;;;;;2.37;100.00;101762.44;4936869;28;20346;-71
2022/12/05 04:28:38;;;;;;;0.20;0.20;;;;;;;2.36;100.00;101766.00;4963438;28;20356;-71
2022/12/05 04:31:06;;;;;;;0.20;0.20;;;;;;;2.43;100.00;101764.03;4947653;28;20027;-71
2022/12/05 04:33:54;;;;;;;0.20;0.20;;;;;;;2.43;100.00;101767.53;4950532;28;20023;-72
2022/12/05 04:36:43;;;;;;;0.20;0.20;;;;;;;2.41;100.00;101766.69;4951050;28;20030;-72
2022/12/05 04:39:20;;;;;;;0.20;0.20;;;;;;;2.47;100.00;101774.50;4946126;28;20053;-72
2022/12/05 04:41:52;;;;;;;0.20;0.20;;;;;;;2.43;100.00;101764.03;4942872;28;20425;-72
2022/12/05 04:44:20;;;;;;;0.20;0.20;;;;;;;2.48;100.00;101770.91;4938773;28;20500;-72
2022/12/05 04:46:47;;;;;;;0.20;0.20;;;;;;;2.44;100.00;101766.63;4970164;28;20032;-72
2022/12/05 04:49:16;;;;;;;0.20;0.20;;;;;;;2.37;100.00;101752.69;4944869;28;20105;-72
2022/12/05 04:51:43;;;;;;;0.20;0.20;;;;;;;2.50;100.00;101770.91;4925279;28;20941;-71
2022/12/05 04:54:20;;;;;;;0.20;0.20;;;;;;;2.54;100.00;101765.44;4943135;28;20110;-72
2022/12/05 04:56:46;;;;;;;0.20;0.20;;;;;;;2.53;100.00;101763.72;4956216;28;20037;-72
2022/12/05 04:59:11;;;;;;;0.20;0.20;;;;;;;2.45;100.00;101755.09;4942467;28;20058;-71
2022/12/05 05:01:41;;;;;;;0.10;0.10;;;;;;;2.58;100.00;101773.31;4958839;28;20073;-72
2022/12/05 05:04:13;;;;;;;0.10;0.10;;;;;;;2.52;100.00;101761.09;4966966;28;20038;-72
2022/12/05 05:06:39;;;;;;;0.20;0.20;;;;;;;2.51;100.00;101756.72;4969399;28;20065;-72
2022/12/05 05:09:05;;;;;;;0.20;0.20;;;;;;;2.51;100.00;101754.94;4942075;28;20070;-72
2022/12/05 05:11:33;;;;;;;0.20;0.20;;;;;;;2.36;100.00;101740.34;4938727;28;20138;-72
2022/12/05 05:13:59;;;;;;;0.20;0.20;;;;;;;2.67;100.00;101773.03;4939544;28;20026;-72
2022/12/05 05:16:27;;;;;;;0.20;0.20;;;;;;;2.51;100.00;101754.94;4936569;28;20492;-72
2022/12/05 05:18:53;;;;;;;0.20;0.20;;;;;;;2.68;100.00;101772.13;4957858;28;20027;-72
2022/12/05 05:21:28;;;;;;;0.10;0.10;;;;;;;2.64;100.00;101778.44;4942662;28;20027;-72
2022/12/05 05:23:53;;;;;;;0.20;0.20;;;;;;;2.60;100.00;101779.44;4958163;28;20030;-72
2022/12/05 05:26:19;;;;;;;0.20;0.20;;;;;;;2.54;100.00;101769.88;4941664;28;20038;-72
2022/12/05 05:28:45;;;;;;;0.20;0.20;;;;;;;2.65;100.00;101786.34;4968941;28;20109;-72
2022/12/05 05:31:11;;;;;;;0.20;0.20;;;;;;;2.55;100.00;101769.84;4944499;28;20041;-72
2022/12/05 05:33:36;;;;;;;0.20;0.20;;;;;;;2.61;100.00;101782.03;4955916;28;20042;-72
2022/12/05 05:36:07;;;;;;;0.10;0.10;;;;;;;2.47;100.00;101765.69;4943265;28;20722;-72
2022/12/05 05:38:40;;;;;;;0.20;0.20;;;;;;;2.61;100.00;101778.53;4971916;28;20133;-72
2022/12/05 05:41:22;;;;;;;0.30;0.30;;;;;;;2.66;100.00;101773.94;4941752;28;20023;-69
2022/12/05 05:43:48;;;;;;;0.20;0.20;;;;;;;2.67;100.00;101783.63;4956064;28;20030;-72
2022/12/05 05:46:15;;;;;;;0.20;0.20;;;;;;;2.58;100.00;101782.13;4939108;28;20066;-72
2022/12/05 05:48:41;;;;;;;0.17;0.17;;;;;;;2.42;100.00;101755.19;4937481;28;20074;-72
2022/12/05 05:51:08;;;;;;;0.15;0.15;;;;;;;2.65;100.00;101782.84;4954262;28;20023;-72
2022/12/05 05:53:34;;;;;;;0.20;0.20;;;;;;;2.62;100.00;101777.63;4935476;28;20065;-72
2022/12/05 05:56:07;;;;;;;0.20;0.20;;;;;;;2.56;100.00;101760.09;4967427;28;20117;-72
2022/12/05 05:58:33;;;;;;;0.20;0.20;;;;;;;2.51;100.00;101759.38;4958600;28;20444;-72
2022/12/05 06:01:10;;;;;;;0.10;0.10;;;;;;;2.60;100.00;101761.75;4942959;28;20035;-72
2022/12/05 06:03:35;;;;;;;0.15;0.15;;;;;;;2.68;100.00;101770.34;4935844;28;20038;-72
2022/12/05 06:06:03;;;;;;;0.15;0.15;;;;;;;2.68;100.00;101775.66;4947706;28;20042;-72
2022/12/05 06:08:29;;;;;;;0.10;0.10;;;;;;;2.69;100.00;101782.69;4948907;28;20031;-72
2022/12/05 06:10:55;;;;;;;0.10;0.10;;;;;;;2.60;100.00;101764.38;4960336;28;20023;-72
2022/12/05 06:13:20;;;;;;;0.20;0.20;;;;;;;2.64;100.00;101781.94;4946643;28;20065;-72
2022/12/05 06:15:45;;;;;;;0.10;0.10;;;;;;;2.69;100.00;101788.00;4930080;28;21521;-73
2022/12/05 06:18:10;;;;;;;0.10;0.10;;;;;;;2.53;100.00;101750.47;4950743;28;20045;-72
2022/12/05 06:20:36;;;;;;;0.10;0.10;;;;;;;2.73;100.00;101786.09;4957164;28;20089;-72
2022/12/05 06:23:01;;;;;;;0.10;0.10;;;;;;;2.73;100.00;101787.91;4975682;28;20045;-73
2022/12/05 06:25:26;;;;;;;0.13;0.13;;;;;;;2.54;100.00;101761.91;4960929;28;20039;-72
2022/12/05 06:27:52;;;;;;;0.10;0.10;;;;;;;2.73;100.00;101791.41;4948510;28;20046;-72
2022/12/05 06:30:17;;;;;;;0.20;0.20;;;;;;;2.74;100.00;101792.31;4962847;28;20034;-72
2022/12/05 06:32:42;;;;;;;0.13;0.13;;;;;;;2.65;100.00;101777.53;4971005;28;20472;-72
2022/12/05 06:35:14;;;;;;;0.20;0.20;;;;;;;2.72;100.00;101791.47;4966499;28;20061;-73
2022/12/05 06:37:40;;;;;;;0.20;0.20;;;;;;;2.78;100.00;101797.47;4965432;28;20026;-73
2022/12/05 06:40:06;;;;;;;0.10;0.10;;;;;;;2.80;100.00;101806.25;4955680;28;20034;-73
2022/12/05 06:42:32;;;;;;;0.20;0.20;;;;;;;2.70;100.00;101781.78;4949756;28;20088;-73
2022/12/05 06:44:57;;;;;;;0.20;0.20;;;;;;;2.74;100.00;101792.31;4955734;28;20034;-73
2022/12/05 06:47:22;;;;;;;0.20;0.20;;;;;;;2.82;100.00;101801.75;4926089;28;20054;-73
2022/12/05 06:49:47;;;;;;;0.20;0.20;;;;;;;2.87;100.00;101806.06;4958063;28;20041;-73
2022/12/05 06:52:13;;;;;;;0.20;0.20;;;;;;;2.84;100.00;101809.66;4952618;28;20384;-73
2022/12/05 06:54:38;;;;;;;0.20;0.20;;;;;;;2.85;100.00;101809.63;4965660;28;20416;-72
2022/12/05 06:57:03;;;;;;;0.10;0.10;;;;;;;2.77;100.00;101786.91;4968351;28;20361;-73
2022/12/05 06:59:29;;;;;;;0.10;0.10;;;;;;;2.87;100.00;101793.66;4958900;28;20546;-73
2022/12/05 07:01:54;;;;;;;0.15;0.15;;;;;;;2.95;100.00;101812.00;4937436;28;20340;-73
2022/12/05 07:04:24;;;;;;;0.20;0.20;;;;;;;2.94;100.00;101807.59;4959079;28;20469;-73
2022/12/05 07:06:51;;;;;;;0.10;0.10;;;;;;;2.89;100.00;101809.53;4945118;28;20076;-73
2022/12/05 07:09:44;;;;;;;0.10;0.10;;;;;;;2.91;100.00;101813.88;4962847;28;20127;-73
2022/12/05 07:12:07;;;;;;;0.20;0.20;;;;;;;2.85;100.00;101808.75;4949519;28;20161;-73
2022/12/05 07:14:32;;;;;;;0.20;0.20;;;;;;;2.95;100.00;101809.34;4961308;28;20035;-73
2022/12/05 07:16:58;;;;;;;0.10;0.10;;;;;;;2.86;100.00;101805.19;4948058;28;20081;-73
2022/12/05 07:19:23;;;;;;;0.10;0.10;;;;;;;2.99;100.00;101821.59;4968654;28;20097;-73
2022/12/05 07:21:48;;;;;;;0.10;0.10;;;;;;;2.94;100.00;101818.22;4966302;28;20285;-73
2022/12/05 07:24:14;;;;;;;0.20;0.20;;;;;;;2.93;100.00;101817.34;4940303;28;20068;-73
2022/12/05 07:26:39;;;;;;;0.10;0.10;;;;;;;2.91;100.00;101823.63;4946616;28;20038;-73
2022/12/05 07:29:05;;;;;;;0.10;0.10;;;;;;;3.00;100.00;101834.84;4961378;28;20499;-73
2022/12/05 07:31:32;;;;;;;0.13;0.13;;;;;;;3.02;100.00;101826.81;4954875;28;20030;-73
2022/12/05 07:33:58;;;;;;;0.20;0.20;;;;;;;2.88;100.00;101811.31;4961519;28;20813;-73
2022/12/05 07:36:24;;;;;;;0.20;0.20;;;;;;;2.91;100.00;101821.84;4946517;28;20170;-73
2022/12/05 07:38:57;;;;;;;0.20;0.20;;;;;;;3.04;100.00;101832.09;4941765;28;20030;-73
2022/12/05 07:41:26;;;;;;;0.13;0.13;;;;;;;3.07;100.00;101840.81;4942544;28;20480;-72
2022/12/05 07:43:53;;;;;;;0.20;0.20;;;;;;;3.01;100.00;101833.03;4964387;28;20532;-73
2022/12/05 07:46:18;;;;;;;0.10;0.10;;;;;;;3.00;100.00;101824.22;4947196;28;20062;-73
2022/12/05 07:48:43;;;;;;;0.20;0.20;;;;;;;3.05;100.00;101837.34;4966127;28;20109;-73
2022/12/05 07:51:09;;;;;;;0.20;0.20;;;;;;;3.13;100.00;101837.97;4950938;28;20034;-73
2022/12/05 07:53:36;;;;;;;0.20;0.20;;;;;;;3.14;100.00;101841.50;4949781;28;20122;-73
2022/12/05 07:56:03;;;;;;;0.10;0.10;;;;;;;3.11;100.00;101842.47;4930675;28;20449;-73
2022/12/05 07:58:29;;;;;;;0.20;0.20;;;;;;;3.10;100.00;101847.81;4943231;28;20039;-73
2022/12/05 08:00:54;;;;;;;0.15;0.15;;;;;;;2.95;100.00;101822.59;4931575;28;20031;-73
2022/12/05 08:03:20;;;;;;;0.20;0.20;;;;;;;3.05;100.00;101839.09;4934944;28;20034;-77
2022/12/05 08:05:45;;;;;;;0.20;0.20;;;;;;;3.12;100.00;101851.28;4947283;28;20042;-78
2022/12/05 08:08:10;;;;;;;0.10;0.10;;;;;;;3.14;100.00;101846.81;4934320;28;20051;-72
2022/12/05 08:10:36;;;;;;;0.13;0.13;;;;;;;3.10;100.00;101839.84;4949514;28;20077;-73
2022/12/05 08:13:01;;;;;;;0.20;0.20;;;;;;;3.14;100.00;101839.72;4931953;28;20044;-73
2022/12/05 08:15:26;;;;;;;0.20;0.20;;;;;;;3.05;100.00;101832.03;4930663;28;20034;-73
2022/12/05 08:17:51;;;;;;;0.20;0.20;;;;;;;3.02;100.00;101820.66;4962721;28;20078;-73
2022/12/05 08:20:17;;;;;;;0.13;0.13;;;;;;;3.20;100.00;101859.00;4950574;28;20531;-73
2022/12/05 08:22:42;;;;;;;0.20;0.20;;;;;;;3.24;100.00;101871.28;4947644;28;20026;-73
2022/12/05 08:25:08;;;;;;;0.20;0.20;;;;;;;3.13;100.00;101845.94;4935634;28;20428;-73
2022/12/05 08:27:34;;;;;;;0.13;0.13;;;;;;;3.24;100.00;101869.50;4955254;28;20389;-72
2022/12/05 08:29:59;;;;;;;0.10;0.10;;;;;;;3.18;100.00;101847.59;4923487;28;20035;-72
2022/12/05 08:32:25;;;;;;;0.13;0.13;;;;;;;3.34;100.00;101880.69;4945903;28;20038;-72
2022/12/05 08:34:51;;;;;;;0.20;0.20;;;;;;;3.25;100.00;101865.03;4946185;28;20081;-72
2022/12/05 08:37:16;;;;;;;0.20;0.20;;;;;;;3.38;100.00;101887.66;4947392;28;20401;-72
2022/12/05 08:39:41;;;;;;;0.10;0.10;;;;;;;3.32;100.00;101868.38;4948910;28;20073;-72
2022/12/05 08:42:07;;;;;;;0.10;0.10;;;;;;;3.21;100.00;101858.09;4963324;28;20026;-72
2022/12/05 08:44:32;;;;;;;0.20;0.20;;;;;;;3.38;100.00;101878.81;4933786;28;20035;-72
2022/12/05 08:46:57;;;;;;;0.20;0.20;;;;;;;3.29;100.00;101872.88;4923666;28;20495;-72
2022/12/05 08:49:23;;;;;;;0.15;0.15;;;;;;;3.29;100.00;101878.19;4948487;28;20347;-72
2022/12/05 08:51:48;;;;;;;0.10;0.10;;;;;;;3.27;100.00;101881.78;4946964;28;20038;-72
2022/12/05 08:54:13;;;;;;;0.10;0.10;;;;;;;3.12;100.00;101860.13;4944270;28;20027;-72
2022/12/05 08:56:39;;;;;;;0.10;0.10;;;;;;;3.21;100.00;101876.66;4929424;28;20158;-72
2022/12/05 08:59:05;;;;;;;0.10;0.10;;;;;;;3.24;100.00;101889.84;4946331;28;20035;-72
2022/12/05 09:01:31;;;;;;;0.10;0.10;;;;;;;3.16;100.00;101887.44;4940947;28;20030;-72
2022/12/05 09:03:59;;;;;;;0.15;0.15;;;;;;;3.16;100.00;101882.13;4947026;28;20092;-72
2022/12/05 09:06:25;;;;;;;0.20;0.20;;;;;;;3.14;100.00;101882.19;4942085;28;20035;-72
2022/12/05 09:08:56;;;;;;;0.10;0.10;;;;;;;3.17;100.00;101896.28;4951546;28;20027;-72
2022/12/05 09:11:24;;;;;;;0.20;0.20;;;;;;;3.12;100.00;101889.31;4963619;28;20026;-72
2022/12/05 09:13:51;;;;;;;0.10;0.10;;;;;;;2.98;100.00;101872.91;4947142;28;20431;-72
2022/12/05 09:16:18;;;;;;;0.20;0.20;;;;;;;3.12;100.00;101901.69;4964323;28;20038;-72
2022/12/05 09:18:44;;;;;;;0.10;0.10;;;;;;;3.00;100.00;101879.94;4950579;28;20026;-72
2022/12/05 09:21:13;;;;;;;0.15;0.15;;;;;;;3.05;100.00;101913.41;4949386;28;20037;-72
2022/12/05 09:23:38;;;;;;;0.20;0.20;;;;;;;3.08;100.00;101915.97;4958020;28;20030;-72
2022/12/05 09:26:05;;;;;;;0.20;0.20;;;;;;;3.06;100.00;101912.50;4936188;28;20039;-72
2022/12/05 09:28:30;;;;;;;0.10;0.10;;;;;;;3.04;100.00;101912.56;4946108;28;20034;-72
2022/12/05 09:31:01;;;;;;;0.20;0.20;;;;;;;3.04;100.00;101920.50;4930419;28;20027;-72
2022/12/05 09:33:31;;;;;;;0.10;0.10;;;;;;;3.00;100.00;101919.75;4938212;29;20035;-72
2022/12/05 09:35:56;;;;;;;0.20;0.20;;;;;;;2.88;100.00;101904.16;4958275;28;20040;-72
2022/12/05 09:38:22;;;;;;;0.10;0.10;;;;;;;2.98;100.00;101916.25;4941696;28;20039;-72
2022/12/05 09:40:53;;;;;;;0.10;0.10;;;;;;;2.90;100.00;101907.63;4936473;28;20039;-73
2022/12/05 09:43:26;;;;;;;0.10;0.10;;;;;;;3.00;100.00;101922.41;4958745;28;20035;-72
2022/12/05 09:46:14;;;;;;;0.10;0.10;;;;;;;2.99;100.00;101925.97;4948940;28;20727;-72
2022/12/05 09:48:40;;;;;;;0.10;0.10;;;;;;;2.88;100.00;101925.38;4959787;28;20114;-72
2022/12/05 09:51:09;;;;;;;0.17;0.17;;;;;;;2.81;100.00;101902.59;4950884;28;20503;-72
2022/12/05 09:53:37;;;;;;;0.10;0.10;;;;;;;2.99;100.00;101930.38;4945577;28;20073;-72
2022/12/05 09:56:26;;;;;;;0.10;0.10;;;;;;;2.91;100.00;101912.03;4945404;28;20042;-72
2022/12/05 09:58:53;;;;;;;0.20;0.20;;;;;;;2.97;100.00;101932.19;4930701;28;20739;-72
2022/12/05 10:01:18;;;;;;;0.10;0.10;;;;;;;3.04;100.00;101939.09;4948802;28;20527;-72
2022/12/05 10:04:01;;;;;;;0.10;0.10;;;;;;;3.02;100.00;101937.41;4952051;28;20030;-72
2022/12/05 10:06:54;;;;;;;0.13;0.13;;;;;;;2.99;100.00;101939.22;4947335;28;20350;-72
2022/12/05 10:09:37;;;;;;;0.10;0.10;;;;;;;2.83;100.00;101925.53;4971076;28;20467;-72
2022/12/05 10:12:21;;;;;;;0.20;0.20;;;;;;;2.94;100.00;101940.25;4928270;28;20055;-72
2022/12/05 10:15:00;;;;;;;0.20;0.20;;;;;;;2.76;100.00;101939.00;4952130;28;20057;-72
2022/12/05 10:17:30;;;;;;;0.10;0.10;;;;;;;2.82;100.00;101936.16;4934885;28;20042;-73
2022/12/05 10:19:59;;;;;;;0.10;0.10;;;;;;;2.75;100.00;101946.06;4939623;28;20460;-72
2022/12/05 10:22:36;;;;;;;0.20;0.20;;;;;;;2.64;100.00;101942.84;4955501;28;20027;-72
2022/12/05 10:25:03;;;;;;;0.20;0.20;;;;;;;2.60;100.00;101927.94;4951634;28;20030;-72
2022/12/05 10:27:37;;;;;;;0.10;0.10;;;;;;;2.51;100.00;101937.00;4935025;28;20481;-72
2022/12/05 10:30:12;;;;;;;0.10;0.10;;;;;;;2.57;100.00;101941.28;4948870;28;20077;-72
2022/12/05 10:32:52;;;;;;;0.10;0.10;;;;;;;2.50;100.00;101924.66;4935583;28;20042;-72
2022/12/05 10:35:21;;;;;;;0.10;0.10;;;;;;;2.57;100.00;101934.16;4961817;28;20027;-72
2022/12/05 10:37:49;;;;;;;0.10;0.10;;;;;;;2.52;100.00;101923.69;4946126;28;20661;-72
2022/12/05 10:40:15;;;;;;;0.10;0.10;;;;;;;2.34;100.00;101874.69;4938151;28;20257;-72
2022/12/05 10:42:41;;;;;;;0.15;0.15;;;;;;;2.60;100.00;101925.28;4983104;28;20618;-72
2022/12/05 10:45:19;;;;;;;0.17;0.17;;;;;;;2.63;100.00;101922.56;4929363;28;20279;-72
2022/12/05 10:47:45;;;;;;;0.20;0.20;;;;;;;2.48;100.00;101922.03;4940423;28;20523;-72
2022/12/05 10:50:29;;;;;;;0.10;0.10;;;;;;;2.58;100.00;101925.31;4957538;28;20038;-73
2022/12/05 10:52:56;;;;;;;0.10;0.10;;;;;;;2.54;100.00;101905.97;4940925;28;20420;-72
2022/12/05 10:55:21;;;;;;;0.20;0.20;;;;;;;2.62;100.00;101915.50;4941499;28;20035;-72
2022/12/05 10:58:16;;;;;;;0.10;0.10;;;;;;;2.49;100.00;101907.88;4941796;28;20038;-72
2022/12/05 11:00:45;;;;;;;0.20;0.20;;;;;;;2.66;100.00;101928.63;4980861;28;20465;-72
2022/12/05 11:03:27;;;;;;;0.20;0.20;;;;;;;2.73;100.00;101923.16;4943773;28;20400;-72
2022/12/05 11:05:55;;;;;;;0.10;0.10;;;;;;;2.74;100.00;101925.75;4946258;28;20066;-72
2022/12/05 11:08:23;;;;;;;0.10;0.10;;;;;;;2.64;100.00;101909.22;4933411;28;20080;-72
2022/12/05 11:10:59;;;;;;;0.10;0.10;;;;;;;2.69;100.00;101919.72;4952970;28;20365;-72
2022/12/05 11:13:24;;;;;;;0.20;0.20;;;;;;;2.66;100.00;101923.31;4931922;28;20027;-72
2022/12/05 11:15:50;;;;;;;0.20;0.20;;;;;;;2.60;100.00;101899.63;4942871;28;20027;-73
2022/12/05 11:18:25;;;;;;;0.10;0.10;;;;;;;2.72;100.00;101916.97;4958839;28;20038;-72
2022/12/05 11:20:50;;;;;;;0.10;0.10;;;;;;;2.54;100.00;101889.19;4927690;29;20034;-72
2022/12/05 11:23:29;;;;;;;0.13;0.13;;;;;;;2.74;100.00;101912.50;4938781;28;20030;-73
2022/12/05 11:25:56;;;;;;;0.20;0.20;;;;;;;2.79;100.00;101913.25;4940857;28;20051;-72
2022/12/05 11:28:34;;;;;;;0.10;0.10;;;;;;;2.81;100.00;101919.38;4948727;28;20022;-72
2022/12/05 11:31:02;;;;;;;0.20;0.20;;;;;;;2.84;100.00;101921.97;4961154;28;20034;-72
2022/12/05 11:33:33;;;;;;;0.20;0.20;;;;;;;2.83;100.00;101917.56;4961804;28;20034;-72
2022/12/05 11:36:09;;;;;;;0.10;0.10;;;;;;;2.72;100.00;101905.50;4934960;28;20138;-72
2022/12/05 11:38:34;;;;;;;0.10;0.10;;;;;;;2.83;100.00;101922.88;4952995;28;20046;-72